sensor_id;sensor_type;location;lat;lon;timestamp;P1;durP1;ratioP1;P2;durP2;ratioP2
48367;SDS011;34173;47.446;18.912;2022-07-29T00:00:32;5.43;;;3.50;;
48367;SDS011;34173;47.446;18.912;2022-07-29T00:03:00;5.53;;;3.87;;
48367;SDS011;34173;47.446;18.912;2022-07-29T00:05:28;6.30;;;3.55;;
48367;SDS011;34173;47.446;18.912;2022-07-29T00:07:56;6.32;;;3.62;;
48367;SDS011;34173;47.446;18.912;2022-07-29T00:10:24;5.95;;;3.75;;
48367;SDS011;34173;47.446;18.912;2022-07-29T00:12:52;5.32;;;3.42;;
48367;SDS011;34173;47.446;18.912;2022-07-29T00:15:21;5.60;;;3.70;;
48367;SDS011;34173;47.446;18.912;2022-07-29T00:17:49;6.05;;;3.08;;
48367;SDS011;34173;47.446;18.912;2022-07-29T00:20:17;7.25;;;3.60;;
48367;SDS011;34173;47.446;18.912;2022-07-29T00:22:45;6.15;;;3.75;;
48367;SDS011;34173;47.446;18.912;2022-07-29T00:25:14;6.07;;;3.67;;
48367;SDS011;34173;47.446;18.912;2022-07-29T00:27:42;8.00;;;3.78;;
48367;SDS011;34173;47.446;18.912;2022-07-29T00:30:10;6.35;;;3.70;;
48367;SDS011;34173;47.446;18.912;2022-07-29T00:32:40;5.93;;;3.85;;
48367;SDS011;34173;47.446;18.912;2022-07-29T00:35:08;7.07;;;3.78;;
48367;SDS011;34173;47.446;18.912;2022-07-29T00:37:55;7.68;;;4.10;;
48367;SDS011;34173;47.446;18.912;2022-07-29T00:40:23;5.87;;;3.85;;
48367;SDS011;34173;47.446;18.912;2022-07-29T00:42:51;5.43;;;3.97;;
48367;SDS011;34173;47.446;18.912;2022-07-29T00:45:19;6.87;;;4.28;;
48367;SDS011;34173;47.446;18.912;2022-07-29T00:47:47;6.37;;;4.25;;
48367;SDS011;34173;47.446;18.912;2022-07-29T00:50:15;6.60;;;4.07;;
48367;SDS011;34173;47.446;18.912;2022-07-29T00:52:42;8.57;;;4.10;;
48367;SDS011;34173;47.446;18.912;2022-07-29T00:55:11;6.03;;;3.58;;
48367;SDS011;34173;47.446;18.912;2022-07-29T00:57:40;8.18;;;4.50;;
48367;SDS011;34173;47.446;18.912;2022-07-29T01:00:11;5.50;;;3.60;;
48367;SDS011;34173;47.446;18.912;2022-07-29T01:02:40;7.97;;;4.40;;
48367;SDS011;34173;47.446;18.912;2022-07-29T01:05:08;8.27;;;4.25;;
48367;SDS011;34173;47.446;18.912;2022-07-29T01:07:36;7.95;;;4.20;;
48367;SDS011;34173;47.446;18.912;2022-07-29T01:10:04;5.75;;;3.90;;
48367;SDS011;34173;47.446;18.912;2022-07-29T01:12:34;9.55;;;3.75;;
48367;SDS011;34173;47.446;18.912;2022-07-29T01:15:03;5.78;;;3.80;;
48367;SDS011;34173;47.446;18.912;2022-07-29T01:20:43;10.77;;;4.20;;
48367;SDS011;34173;47.446;18.912;2022-07-29T01:23:25;7.20;;;4.00;;
48367;SDS011;34173;47.446;18.912;2022-07-29T01:29:49;4.82;;;3.70;;
48367;SDS011;34173;47.446;18.912;2022-07-29T01:32:07;6.07;;;3.62;;
48367;SDS011;34173;47.446;18.912;2022-07-29T01:34:50;5.97;;;4.40;;
48367;SDS011;34173;47.446;18.912;2022-07-29T01:37:24;7.93;;;3.83;;
48367;SDS011;34173;47.446;18.912;2022-07-29T01:39:55;7.07;;;4.35;;
48367;SDS011;34173;47.446;18.912;2022-07-29T01:42:43;6.90;;;3.75;;
48367;SDS011;34173;47.446;18.912;2022-07-29T01:45:29;6.05;;;4.10;;
48367;SDS011;34173;47.446;18.912;2022-07-29T01:48:11;7.07;;;3.83;;
48367;SDS011;34173;47.446;18.912;2022-07-29T01:50:46;6.87;;;4.40;;
48367;SDS011;34173;47.446;18.912;2022-07-29T01:56:04;6.43;;;3.85;;
48367;SDS011;34173;47.446;18.912;2022-07-29T01:58:34;5.60;;;3.90;;
48367;SDS011;34173;47.446;18.912;2022-07-29T02:01:02;7.53;;;4.10;;
48367;SDS011;34173;47.446;18.912;2022-07-29T02:03:31;7.78;;;4.55;;
48367;SDS011;34173;47.446;18.912;2022-07-29T02:05:59;6.10;;;4.62;;
48367;SDS011;34173;47.446;18.912;2022-07-29T02:08:29;7.80;;;4.40;;
48367;SDS011;34173;47.446;18.912;2022-07-29T02:10:58;7.90;;;4.18;;
48367;SDS011;34173;47.446;18.912;2022-07-29T02:13:27;6.28;;;4.12;;
48367;SDS011;34173;47.446;18.912;2022-07-29T02:15:56;7.72;;;4.05;;
48367;SDS011;34173;47.446;18.912;2022-07-29T02:18:25;7.40;;;4.62;;
48367;SDS011;34173;47.446;18.912;2022-07-29T02:20:54;6.37;;;4.28;;
48367;SDS011;34173;47.446;18.912;2022-07-29T02:23:23;7.57;;;4.40;;
48367;SDS011;34173;47.446;18.912;2022-07-29T02:25:52;7.32;;;4.53;;
48367;SDS011;34173;47.446;18.912;2022-07-29T02:28:22;5.90;;;4.50;;
48367;SDS011;34173;47.446;18.912;2022-07-29T02:30:52;7.07;;;4.65;;
48367;SDS011;34173;47.446;18.912;2022-07-29T02:33:21;9.02;;;4.82;;
48367;SDS011;34173;47.446;18.912;2022-07-29T02:35:48;7.12;;;4.28;;
48367;SDS011;34173;47.446;18.912;2022-07-29T02:38:17;7.32;;;4.40;;
48367;SDS011;34173;47.446;18.912;2022-07-29T02:41:06;6.53;;;4.47;;
48367;SDS011;34173;47.446;18.912;2022-07-29T02:43:39;7.10;;;4.80;;
48367;SDS011;34173;47.446;18.912;2022-07-29T02:46:08;6.43;;;4.97;;
48367;SDS011;34173;47.446;18.912;2022-07-29T02:48:58;5.82;;;4.55;;
48367;SDS011;34173;47.446;18.912;2022-07-29T02:51:29;8.07;;;4.35;;
48367;SDS011;34173;47.446;18.912;2022-07-29T02:54:14;8.68;;;4.53;;
48367;SDS011;34173;47.446;18.912;2022-07-29T02:56:48;5.95;;;4.55;;
48367;SDS011;34173;47.446;18.912;2022-07-29T02:59:16;6.80;;;4.62;;
48367;SDS011;34173;47.446;18.912;2022-07-29T03:01:48;7.68;;;4.80;;
48367;SDS011;34173;47.446;18.912;2022-07-29T03:04:16;5.68;;;4.37;;
48367;SDS011;34173;47.446;18.912;2022-07-29T03:06:46;7.18;;;4.45;;
48367;SDS011;34173;47.446;18.912;2022-07-29T03:09:14;6.43;;;4.18;;
48367;SDS011;34173;47.446;18.912;2022-07-29T03:11:42;7.00;;;4.28;;
48367;SDS011;34173;47.446;18.912;2022-07-29T03:16:45;9.23;;;4.62;;
48367;SDS011;34173;47.446;18.912;2022-07-29T03:19:13;8.05;;;4.72;;
48367;SDS011;34173;47.446;18.912;2022-07-29T03:21:42;6.15;;;4.30;;
48367;SDS011;34173;47.446;18.912;2022-07-29T03:24:10;7.25;;;5.43;;
48367;SDS011;34173;47.446;18.912;2022-07-29T03:26:37;6.93;;;4.55;;
48367;SDS011;34173;47.446;18.912;2022-07-29T03:29:05;6.70;;;4.45;;
48367;SDS011;34173;47.446;18.912;2022-07-29T03:31:33;6.15;;;4.72;;
48367;SDS011;34173;47.446;18.912;2022-07-29T03:34:00;6.22;;;4.50;;
48367;SDS011;34173;47.446;18.912;2022-07-29T03:36:28;8.25;;;4.57;;
48367;SDS011;34173;47.446;18.912;2022-07-29T03:38:55;7.65;;;4.57;;
48367;SDS011;34173;47.446;18.912;2022-07-29T03:41:23;8.68;;;4.72;;
48367;SDS011;34173;47.446;18.912;2022-07-29T03:43:51;7.25;;;5.20;;
48367;SDS011;34173;47.446;18.912;2022-07-29T03:46:21;7.62;;;4.97;;
48367;SDS011;34173;47.446;18.912;2022-07-29T03:48:50;6.28;;;4.47;;
48367;SDS011;34173;47.446;18.912;2022-07-29T03:51:20;5.50;;;4.32;;
48367;SDS011;34173;47.446;18.912;2022-07-29T03:54:01;9.40;;;4.90;;
48367;SDS011;34173;47.446;18.912;2022-07-29T03:56:41;7.18;;;4.72;;
48367;SDS011;34173;47.446;18.912;2022-07-29T03:59:11;6.68;;;4.78;;
48367;SDS011;34173;47.446;18.912;2022-07-29T04:01:41;10.77;;;5.03;;
48367;SDS011;34173;47.446;18.912;2022-07-29T04:04:09;6.57;;;4.62;;
48367;SDS011;34173;47.446;18.912;2022-07-29T04:06:40;6.80;;;4.57;;
48367;SDS011;34173;47.446;18.912;2022-07-29T04:09:09;6.60;;;4.80;;
48367;SDS011;34173;47.446;18.912;2022-07-29T04:11:40;9.95;;;5.15;;
48367;SDS011;34173;47.446;18.912;2022-07-29T04:14:28;7.68;;;4.60;;
48367;SDS011;34173;47.446;18.912;2022-07-29T04:16:56;7.62;;;4.90;;
48367;SDS011;34173;47.446;18.912;2022-07-29T04:19:24;7.62;;;4.65;;
48367;SDS011;34173;47.446;18.912;2022-07-29T04:21:51;10.20;;;4.45;;
48367;SDS011;34173;47.446;18.912;2022-07-29T04:24:19;8.30;;;4.72;;
48367;SDS011;34173;47.446;18.912;2022-07-29T04:26:47;8.10;;;4.87;;
48367;SDS011;34173;47.446;18.912;2022-07-29T04:29:15;8.82;;;4.93;;
48367;SDS011;34173;47.446;18.912;2022-07-29T04:31:43;8.73;;;4.32;;
48367;SDS011;34173;47.446;18.912;2022-07-29T04:34:11;5.85;;;3.97;;
48367;SDS011;34173;47.446;18.912;2022-07-29T04:36:39;8.15;;;4.50;;
48367;SDS011;34173;47.446;18.912;2022-07-29T04:39:07;7.57;;;4.65;;
48367;SDS011;34173;47.446;18.912;2022-07-29T04:41:34;6.68;;;4.87;;
48367;SDS011;34173;47.446;18.912;2022-07-29T04:44:02;11.12;;;5.15;;
48367;SDS011;34173;47.446;18.912;2022-07-29T04:46:38;10.25;;;4.78;;
48367;SDS011;34173;47.446;18.912;2022-07-29T04:49:06;7.10;;;4.40;;
48367;SDS011;34173;47.446;18.912;2022-07-29T04:51:34;8.15;;;4.53;;
48367;SDS011;34173;47.446;18.912;2022-07-29T04:54:02;8.27;;;4.40;;
48367;SDS011;34173;47.446;18.912;2022-07-29T04:56:29;7.60;;;4.60;;
48367;SDS011;34173;47.446;18.912;2022-07-29T04:58:56;7.37;;;4.10;;
48367;SDS011;34173;47.446;18.912;2022-07-29T05:01:24;9.88;;;4.28;;
48367;SDS011;34173;47.446;18.912;2022-07-29T05:03:52;6.45;;;4.40;;
48367;SDS011;34173;47.446;18.912;2022-07-29T05:06:26;9.35;;;4.10;;
48367;SDS011;34173;47.446;18.912;2022-07-29T05:08:53;7.10;;;4.25;;
48367;SDS011;34173;47.446;18.912;2022-07-29T05:11:21;5.68;;;4.28;;
48367;SDS011;34173;47.446;18.912;2022-07-29T05:13:56;9.95;;;4.55;;
48367;SDS011;34173;47.446;18.912;2022-07-29T05:16:23;8.25;;;4.15;;
48367;SDS011;34173;47.446;18.912;2022-07-29T05:18:51;5.85;;;4.55;;
48367;SDS011;34173;47.446;18.912;2022-07-29T05:21:19;7.40;;;4.50;;
48367;SDS011;34173;47.446;18.912;2022-07-29T05:23:46;6.03;;;4.70;;
48367;SDS011;34173;47.446;18.912;2022-07-29T05:26:13;6.47;;;4.78;;
48367;SDS011;34173;47.446;18.912;2022-07-29T05:28:41;7.05;;;4.90;;
48367;SDS011;34173;47.446;18.912;2022-07-29T05:31:09;7.53;;;4.32;;
48367;SDS011;34173;47.446;18.912;2022-07-29T05:33:36;6.82;;;4.72;;
48367;SDS011;34173;47.446;18.912;2022-07-29T05:36:04;6.85;;;4.28;;
48367;SDS011;34173;47.446;18.912;2022-07-29T05:38:35;9.30;;;4.45;;
48367;SDS011;34173;47.446;18.912;2022-07-29T05:41:03;6.90;;;4.45;;
48367;SDS011;34173;47.446;18.912;2022-07-29T05:43:32;6.93;;;4.62;;
48367;SDS011;34173;47.446;18.912;2022-07-29T05:45:59;7.57;;;5.00;;
48367;SDS011;34173;47.446;18.912;2022-07-29T05:48:27;6.00;;;4.57;;
48367;SDS011;34173;47.446;18.912;2022-07-29T05:50:55;8.20;;;4.78;;
48367;SDS011;34173;47.446;18.912;2022-07-29T05:53:23;7.82;;;4.47;;
48367;SDS011;34173;47.446;18.912;2022-07-29T05:55:50;7.28;;;4.55;;
48367;SDS011;34173;47.446;18.912;2022-07-29T05:58:19;8.27;;;5.35;;
48367;SDS011;34173;47.446;18.912;2022-07-29T06:00:47;10.05;;;5.05;;
48367;SDS011;34173;47.446;18.912;2022-07-29T06:03:15;5.97;;;4.43;;
48367;SDS011;34173;47.446;18.912;2022-07-29T06:05:42;7.50;;;4.95;;
48367;SDS011;34173;47.446;18.912;2022-07-29T06:08:10;7.07;;;4.47;;
48367;SDS011;34173;47.446;18.912;2022-07-29T06:10:38;7.78;;;4.45;;
48367;SDS011;34173;47.446;18.912;2022-07-29T06:13:05;7.12;;;5.32;;
48367;SDS011;34173;47.446;18.912;2022-07-29T06:15:33;7.30;;;4.62;;
48367;SDS011;34173;47.446;18.912;2022-07-29T06:18:01;6.30;;;4.55;;
48367;SDS011;34173;47.446;18.912;2022-07-29T06:20:29;7.40;;;5.10;;
48367;SDS011;34173;47.446;18.912;2022-07-29T06:22:57;6.45;;;4.57;;
48367;SDS011;34173;47.446;18.912;2022-07-29T06:25:26;7.70;;;5.05;;
48367;SDS011;34173;47.446;18.912;2022-07-29T06:27:56;7.90;;;4.78;;
48367;SDS011;34173;47.446;18.912;2022-07-29T06:30:24;7.25;;;4.55;;
48367;SDS011;34173;47.446;18.912;2022-07-29T06:32:52;10.80;;;5.10;;
48367;SDS011;34173;47.446;18.912;2022-07-29T06:35:20;8.32;;;4.65;;
48367;SDS011;34173;47.446;18.912;2022-07-29T06:38:08;6.82;;;4.12;;
48367;SDS011;34173;47.446;18.912;2022-07-29T06:40:56;7.50;;;5.10;;
48367;SDS011;34173;47.446;18.912;2022-07-29T06:43:34;8.30;;;4.72;;
48367;SDS011;34173;47.446;18.912;2022-07-29T06:46:17;5.65;;;4.62;;
48367;SDS011;34173;47.446;18.912;2022-07-29T06:48:46;8.82;;;5.15;;
48367;SDS011;34173;47.446;18.912;2022-07-29T06:51:17;7.30;;;4.80;;
48367;SDS011;34173;47.446;18.912;2022-07-29T06:53:50;8.70;;;5.10;;
48367;SDS011;34173;47.446;18.912;2022-07-29T06:56:32;8.02;;;4.60;;
48367;SDS011;34173;47.446;18.912;2022-07-29T06:59:07;8.27;;;4.65;;
48367;SDS011;34173;47.446;18.912;2022-07-29T07:01:38;7.20;;;4.20;;
48367;SDS011;34173;47.446;18.912;2022-07-29T07:04:08;9.75;;;5.07;;
48367;SDS011;34173;47.446;18.912;2022-07-29T07:06:36;5.95;;;4.37;;
48367;SDS011;34173;47.446;18.912;2022-07-29T07:09:04;9.43;;;4.45;;
48367;SDS011;34173;47.446;18.912;2022-07-29T07:11:32;6.85;;;4.25;;
48367;SDS011;34173;47.446;18.912;2022-07-29T07:13:59;7.53;;;4.25;;
48367;SDS011;34173;47.446;18.912;2022-07-29T07:16:30;7.25;;;4.80;;
48367;SDS011;34173;47.446;18.912;2022-07-29T07:18:59;7.30;;;4.78;;
48367;SDS011;34173;47.446;18.912;2022-07-29T07:21:27;9.70;;;4.65;;
48367;SDS011;34173;47.446;18.912;2022-07-29T07:23:57;8.68;;;5.00;;
48367;SDS011;34173;47.446;18.912;2022-07-29T07:26:26;8.70;;;4.53;;
48367;SDS011;34173;47.446;18.912;2022-07-29T07:28:54;9.35;;;5.03;;
48367;SDS011;34173;47.446;18.912;2022-07-29T07:31:21;7.75;;;4.40;;
48367;SDS011;34173;47.446;18.912;2022-07-29T07:33:49;7.32;;;4.18;;
48367;SDS011;34173;47.446;18.912;2022-07-29T07:36:17;7.95;;;4.10;;
48367;SDS011;34173;47.446;18.912;2022-07-29T07:38:45;7.43;;;3.97;;
48367;SDS011;34173;47.446;18.912;2022-07-29T07:41:12;8.27;;;4.15;;
48367;SDS011;34173;47.446;18.912;2022-07-29T07:43:40;6.93;;;4.32;;
48367;SDS011;34173;47.446;18.912;2022-07-29T07:46:07;8.95;;;4.37;;
48367;SDS011;34173;47.446;18.912;2022-07-29T07:48:35;12.00;;;4.20;;
48367;SDS011;34173;47.446;18.912;2022-07-29T07:51:03;7.20;;;3.90;;
48367;SDS011;34173;47.446;18.912;2022-07-29T07:53:30;7.57;;;4.15;;
48367;SDS011;34173;47.446;18.912;2022-07-29T07:55:59;7.62;;;3.83;;
48367;SDS011;34173;47.446;18.912;2022-07-29T07:58:37;7.93;;;4.15;;
48367;SDS011;34173;47.446;18.912;2022-07-29T08:01:06;8.35;;;4.12;;
48367;SDS011;34173;47.446;18.912;2022-07-29T08:03:34;7.35;;;4.20;;
48367;SDS011;34173;47.446;18.912;2022-07-29T08:06:02;7.07;;;3.95;;
48367;SDS011;34173;47.446;18.912;2022-07-29T08:08:30;10.55;;;4.00;;
48367;SDS011;34173;47.446;18.912;2022-07-29T08:10:58;9.82;;;4.35;;
48367;SDS011;34173;47.446;18.912;2022-07-29T08:13:32;11.02;;;4.35;;
48367;SDS011;34173;47.446;18.912;2022-07-29T08:16:01;7.65;;;3.65;;
48367;SDS011;34173;47.446;18.912;2022-07-29T08:18:39;8.02;;;4.65;;
48367;SDS011;34173;47.446;18.912;2022-07-29T08:21:08;6.60;;;3.92;;
48367;SDS011;34173;47.446;18.912;2022-07-29T08:23:35;8.38;;;3.70;;
48367;SDS011;34173;47.446;18.912;2022-07-29T08:26:15;13.80;;;4.50;;
48367;SDS011;34173;47.446;18.912;2022-07-29T08:28:43;6.78;;;3.70;;
48367;SDS011;34173;47.446;18.912;2022-07-29T08:31:16;9.30;;;4.07;;
48367;SDS011;34173;47.446;18.912;2022-07-29T08:33:44;6.78;;;4.32;;
48367;SDS011;34173;47.446;18.912;2022-07-29T08:36:11;11.70;;;4.50;;
48367;SDS011;34173;47.446;18.912;2022-07-29T08:38:40;9.13;;;4.28;;
48367;SDS011;34173;47.446;18.912;2022-07-29T08:41:07;7.25;;;4.03;;
48367;SDS011;34173;47.446;18.912;2022-07-29T08:43:35;6.90;;;4.22;;
48367;SDS011;34173;47.446;18.912;2022-07-29T08:46:04;6.97;;;3.95;;
48367;SDS011;34173;47.446;18.912;2022-07-29T08:48:32;6.22;;;4.47;;
48367;SDS011;34173;47.446;18.912;2022-07-29T08:51:00;5.55;;;3.87;;
48367;SDS011;34173;47.446;18.912;2022-07-29T08:53:30;6.22;;;4.25;;
48367;SDS011;34173;47.446;18.912;2022-07-29T08:55:59;8.80;;;4.15;;
48367;SDS011;34173;47.446;18.912;2022-07-29T08:58:27;10.82;;;4.10;;
48367;SDS011;34173;47.446;18.912;2022-07-29T09:01:03;7.43;;;3.95;;
48367;SDS011;34173;47.446;18.912;2022-07-29T09:03:33;6.95;;;4.30;;
48367;SDS011;34173;47.446;18.912;2022-07-29T09:06:03;7.40;;;4.28;;
48367;SDS011;34173;47.446;18.912;2022-07-29T09:08:31;7.78;;;3.92;;
48367;SDS011;34173;47.446;18.912;2022-07-29T09:11:00;12.55;;;4.18;;
48367;SDS011;34173;47.446;18.912;2022-07-29T09:13:31;6.00;;;4.10;;
48367;SDS011;34173;47.446;18.912;2022-07-29T09:16:00;9.13;;;4.43;;
48367;SDS011;34173;47.446;18.912;2022-07-29T09:21:07;7.65;;;4.55;;
48367;SDS011;34173;47.446;18.912;2022-07-29T09:24:13;6.90;;;4.15;;
48367;SDS011;34173;47.446;18.912;2022-07-29T09:26:42;8.50;;;4.35;;
48367;SDS011;34173;47.446;18.912;2022-07-29T09:29:20;6.68;;;3.90;;
48367;SDS011;34173;47.446;18.912;2022-07-29T09:31:50;7.70;;;4.07;;
48367;SDS011;34173;47.446;18.912;2022-07-29T09:34:23;9.70;;;4.18;;
48367;SDS011;34173;47.446;18.912;2022-07-29T09:36:55;5.43;;;3.65;;
48367;SDS011;34173;47.446;18.912;2022-07-29T09:39:28;6.30;;;4.15;;
48367;SDS011;34173;47.446;18.912;2022-07-29T09:42:04;9.18;;;4.18;;
48367;SDS011;34173;47.446;18.912;2022-07-29T09:44:43;7.32;;;3.75;;
48367;SDS011;34173;47.446;18.912;2022-07-29T09:47:16;6.37;;;3.08;;
48367;SDS011;34173;47.446;18.912;2022-07-29T09:49:55;6.50;;;3.80;;
48367;SDS011;34173;47.446;18.912;2022-07-29T09:52:27;7.87;;;3.50;;
48367;SDS011;34173;47.446;18.912;2022-07-29T09:55:05;8.10;;;3.42;;
48367;SDS011;34173;47.446;18.912;2022-07-29T09:57:34;9.55;;;3.62;;
48367;SDS011;34173;47.446;18.912;2022-07-29T10:00:06;7.72;;;4.12;;
48367;SDS011;34173;47.446;18.912;2022-07-29T10:02:38;8.18;;;4.00;;
48367;SDS011;34173;47.446;18.912;2022-07-29T10:07:44;7.30;;;3.40;;
48367;SDS011;34173;47.446;18.912;2022-07-29T10:10:26;5.62;;;3.83;;
48367;SDS011;34173;47.446;18.912;2022-07-29T10:12:59;8.57;;;3.60;;
48367;SDS011;34173;47.446;18.912;2022-07-29T10:15:42;7.55;;;3.87;;
48367;SDS011;34173;47.446;18.912;2022-07-29T10:18:13;11.23;;;4.00;;
48367;SDS011;34173;47.446;18.912;2022-07-29T10:20:41;8.50;;;3.72;;
48367;SDS011;34173;47.446;18.912;2022-07-29T10:23:09;6.57;;;3.78;;
48367;SDS011;34173;47.446;18.912;2022-07-29T10:25:37;7.40;;;3.20;;
48367;SDS011;34173;47.446;18.912;2022-07-29T10:28:05;5.00;;;2.87;;
48367;SDS011;34173;47.446;18.912;2022-07-29T10:30:32;8.77;;;3.58;;
48367;SDS011;34173;47.446;18.912;2022-07-29T10:41:19;5.05;;;3.30;;
48367;SDS011;34173;47.446;18.912;2022-07-29T10:44:20;5.65;;;3.28;;
48367;SDS011;34173;47.446;18.912;2022-07-29T10:46:50;5.62;;;3.50;;
48367;SDS011;34173;47.446;18.912;2022-07-29T10:49:22;8.82;;;3.33;;
48367;SDS011;34173;47.446;18.912;2022-07-29T10:51:58;7.07;;;3.20;;
48367;SDS011;34173;47.446;18.912;2022-07-29T10:57:25;5.57;;;3.22;;
48367;SDS011;34173;47.446;18.912;2022-07-29T11:02:45;5.22;;;3.20;;
48367;SDS011;34173;47.446;18.912;2022-07-29T11:05:19;7.03;;;2.72;;
48367;SDS011;34173;47.446;18.912;2022-07-29T11:10:50;4.78;;;2.90;;
48367;SDS011;34173;47.446;18.912;2022-07-29T11:16:08;5.30;;;2.90;;
48367;SDS011;34173;47.446;18.912;2022-07-29T11:19:18;7.05;;;3.30;;
48367;SDS011;34173;47.446;18.912;2022-07-29T11:21:41;8.00;;;2.97;;
48367;SDS011;34173;47.446;18.912;2022-07-29T11:24:25;5.82;;;2.83;;
48367;SDS011;34173;47.446;18.912;2022-07-29T11:27:15;6.68;;;3.08;;
48367;SDS011;34173;47.446;18.912;2022-07-29T11:32:19;6.40;;;3.00;;
48367;SDS011;34173;47.446;18.912;2022-07-29T11:35:10;7.90;;;3.15;;
48367;SDS011;34173;47.446;18.912;2022-07-29T11:37:45;4.37;;;3.05;;
48367;SDS011;34173;47.446;18.912;2022-07-29T11:40:21;5.82;;;3.00;;
48367;SDS011;34173;47.446;18.912;2022-07-29T11:42:49;6.70;;;3.03;;
48367;SDS011;34173;47.446;18.912;2022-07-29T11:45:45;10.55;;;3.20;;
48367;SDS011;34173;47.446;18.912;2022-07-29T11:48:17;7.40;;;2.95;;
48367;SDS011;34173;47.446;18.912;2022-07-29T11:51:08;8.20;;;3.20;;
48367;SDS011;34173;47.446;18.912;2022-07-29T11:53:39;5.32;;;3.20;;
48367;SDS011;34173;47.446;18.912;2022-07-29T11:56:08;5.28;;;3.10;;
48367;SDS011;34173;47.446;18.912;2022-07-29T11:58:42;9.23;;;3.45;;
48367;SDS011;34173;47.446;18.912;2022-07-29T12:01:13;5.50;;;2.80;;
48367;SDS011;34173;47.446;18.912;2022-07-29T12:03:44;4.65;;;2.92;;
48367;SDS011;34173;47.446;18.912;2022-07-29T12:06:12;10.50;;;3.00;;
48367;SDS011;34173;47.446;18.912;2022-07-29T12:08:44;5.85;;;3.10;;
48367;SDS011;34173;47.446;18.912;2022-07-29T12:11:19;6.20;;;3.05;;
48367;SDS011;34173;47.446;18.912;2022-07-29T12:13:50;4.45;;;3.15;;
48367;SDS011;34173;47.446;18.912;2022-07-29T12:16:19;4.40;;;3.03;;
48367;SDS011;34173;47.446;18.912;2022-07-29T12:18:56;6.03;;;3.25;;
48367;SDS011;34173;47.446;18.912;2022-07-29T12:21:25;7.55;;;2.83;;
48367;SDS011;34173;47.446;18.912;2022-07-29T12:23:55;5.90;;;3.00;;
48367;SDS011;34173;47.446;18.912;2022-07-29T12:26:27;5.62;;;2.83;;
48367;SDS011;34173;47.446;18.912;2022-07-29T12:28:55;5.93;;;3.50;;
48367;SDS011;34173;47.446;18.912;2022-07-29T12:31:23;6.95;;;3.37;;
48367;SDS011;34173;47.446;18.912;2022-07-29T12:34:10;5.55;;;3.08;;
48367;SDS011;34173;47.446;18.912;2022-07-29T12:36:39;5.25;;;3.20;;
48367;SDS011;34173;47.446;18.912;2022-07-29T12:39:08;6.15;;;3.05;;
48367;SDS011;34173;47.446;18.912;2022-07-29T12:41:36;5.12;;;3.25;;
48367;SDS011;34173;47.446;18.912;2022-07-29T12:44:04;6.65;;;3.00;;
48367;SDS011;34173;47.446;18.912;2022-07-29T12:46:31;7.15;;;3.08;;
48367;SDS011;34173;47.446;18.912;2022-07-29T12:48:59;6.80;;;3.30;;
48367;SDS011;34173;47.446;18.912;2022-07-29T12:54:11;4.35;;;2.62;;
48367;SDS011;34173;47.446;18.912;2022-07-29T12:56:43;5.90;;;2.95;;
48367;SDS011;34173;47.446;18.912;2022-07-29T12:59:12;4.90;;;2.83;;
48367;SDS011;34173;47.446;18.912;2022-07-29T13:01:41;4.28;;;2.75;;
48367;SDS011;34173;47.446;18.912;2022-07-29T13:04:09;3.92;;;2.70;;
48367;SDS011;34173;47.446;18.912;2022-07-29T13:09:06;7.40;;;2.87;;
48367;SDS011;34173;47.446;18.912;2022-07-29T13:11:35;4.82;;;2.83;;
48367;SDS011;34173;47.446;18.912;2022-07-29T13:14:05;11.65;;;3.40;;
48367;SDS011;34173;47.446;18.912;2022-07-29T13:16:35;5.45;;;2.70;;
48367;SDS011;34173;47.446;18.912;2022-07-29T13:19:05;7.78;;;3.00;;
48367;SDS011;34173;47.446;18.912;2022-07-29T13:21:35;4.90;;;3.25;;
48367;SDS011;34173;47.446;18.912;2022-07-29T13:24:03;6.78;;;2.90;;
48367;SDS011;34173;47.446;18.912;2022-07-29T13:26:33;7.00;;;3.22;;
48367;SDS011;34173;47.446;18.912;2022-07-29T13:29:01;7.43;;;2.80;;
48367;SDS011;34173;47.446;18.912;2022-07-29T13:31:28;8.45;;;2.90;;
48367;SDS011;34173;47.446;18.912;2022-07-29T13:33:56;9.00;;;3.22;;
48367;SDS011;34173;47.446;18.912;2022-07-29T13:36:23;6.97;;;3.05;;
48367;SDS011;34173;47.446;18.912;2022-07-29T13:38:51;7.82;;;3.60;;
48367;SDS011;34173;47.446;18.912;2022-07-29T13:41:20;9.13;;;3.30;;
48367;SDS011;34173;47.446;18.912;2022-07-29T13:43:47;5.80;;;2.95;;
48367;SDS011;34173;47.446;18.912;2022-07-29T13:46:16;12.75;;;3.30;;
48367;SDS011;34173;47.446;18.912;2022-07-29T13:48:43;6.93;;;3.00;;
48367;SDS011;34173;47.446;18.912;2022-07-29T13:51:11;5.95;;;2.92;;
48367;SDS011;34173;47.446;18.912;2022-07-29T13:53:39;6.00;;;3.15;;
48367;SDS011;34173;47.446;18.912;2022-07-29T13:56:07;8.13;;;3.12;;
48367;SDS011;34173;47.446;18.912;2022-07-29T13:58:34;9.18;;;3.55;;
48367;SDS011;34173;47.446;18.912;2022-07-29T14:01:03;4.53;;;2.75;;
48367;SDS011;34173;47.446;18.912;2022-07-29T14:03:31;5.57;;;3.17;;
48367;SDS011;34173;47.446;18.912;2022-07-29T14:05:58;8.60;;;2.90;;
48367;SDS011;34173;47.446;18.912;2022-07-29T14:08:27;7.00;;;3.15;;
48367;SDS011;34173;47.446;18.912;2022-07-29T14:10:55;6.22;;;3.08;;
48367;SDS011;34173;47.446;18.912;2022-07-29T14:13:22;5.22;;;2.90;;
48367;SDS011;34173;47.446;18.912;2022-07-29T14:15:51;5.22;;;2.90;;
48367;SDS011;34173;47.446;18.912;2022-07-29T14:18:19;8.02;;;2.87;;
48367;SDS011;34173;47.446;18.912;2022-07-29T14:20:47;7.70;;;3.17;;
48367;SDS011;34173;47.446;18.912;2022-07-29T14:23:14;5.35;;;3.10;;
48367;SDS011;34173;47.446;18.912;2022-07-29T14:25:42;6.07;;;2.92;;
48367;SDS011;34173;47.446;18.912;2022-07-29T14:28:10;6.03;;;2.80;;
48367;SDS011;34173;47.446;18.912;2022-07-29T14:30:40;4.40;;;3.03;;
48367;SDS011;34173;47.446;18.912;2022-07-29T14:33:08;6.45;;;2.92;;
48367;SDS011;34173;47.446;18.912;2022-07-29T14:35:36;9.07;;;3.80;;
48367;SDS011;34173;47.446;18.912;2022-07-29T14:38:03;4.95;;;2.90;;
48367;SDS011;34173;47.446;18.912;2022-07-29T14:40:31;4.50;;;3.00;;
48367;SDS011;34173;47.446;18.912;2022-07-29T14:42:58;4.75;;;2.78;;
48367;SDS011;34173;47.446;18.912;2022-07-29T14:45:26;6.90;;;3.05;;
48367;SDS011;34173;47.446;18.912;2022-07-29T14:47:55;4.00;;;2.90;;
48367;SDS011;34173;47.446;18.912;2022-07-29T14:50:23;6.30;;;3.10;;
48367;SDS011;34173;47.446;18.912;2022-07-29T14:52:58;9.60;;;3.28;;
48367;SDS011;34173;47.446;18.912;2022-07-29T14:55:26;6.32;;;3.33;;
48367;SDS011;34173;47.446;18.912;2022-07-29T14:57:54;4.55;;;2.47;;
48367;SDS011;34173;47.446;18.912;2022-07-29T15:00:35;8.05;;;3.50;;
48367;SDS011;34173;47.446;18.912;2022-07-29T15:03:04;6.53;;;3.00;;
48367;SDS011;34173;47.446;18.912;2022-07-29T15:05:37;6.17;;;3.33;;
48367;SDS011;34173;47.446;18.912;2022-07-29T15:08:05;7.03;;;3.35;;
48367;SDS011;34173;47.446;18.912;2022-07-29T15:10:35;6.18;;;3.30;;
48367;SDS011;34173;47.446;18.912;2022-07-29T15:13:02;7.62;;;3.28;;
48367;SDS011;34173;47.446;18.912;2022-07-29T15:15:30;5.20;;;3.30;;
48367;SDS011;34173;47.446;18.912;2022-07-29T15:17:58;5.10;;;2.80;;
48367;SDS011;34173;47.446;18.912;2022-07-29T15:20:25;7.85;;;3.53;;
48367;SDS011;34173;47.446;18.912;2022-07-29T15:22:54;7.95;;;3.12;;
48367;SDS011;34173;47.446;18.912;2022-07-29T15:25:25;8.68;;;3.42;;
48367;SDS011;34173;47.446;18.912;2022-07-29T15:27:54;6.47;;;3.33;;
48367;SDS011;34173;47.446;18.912;2022-07-29T15:30:29;7.75;;;3.45;;
48367;SDS011;34173;47.446;18.912;2022-07-29T15:33:01;12.35;;;3.40;;
48367;SDS011;34173;47.446;18.912;2022-07-29T15:35:30;6.85;;;3.50;;
48367;SDS011;34173;47.446;18.912;2022-07-29T15:37:58;6.47;;;3.10;;